sensor_id;sensor_type;location;lat;lon;timestamp;pressure;altitude;pressure_sealevel;temperature;humidity
64253;BME280;50592;52.958;-7.470;2022-11-20T00:01:14;99475.91;;;5.60;100.00
64253;BME280;50592;52.958;-7.470;2022-11-20T00:03:46;99471.59;;;5.59;100.00
64253;BME280;50592;52.958;-7.470;2022-11-20T00:06:18;99474.50;;;5.66;100.00
64253;BME280;50592;52.958;-7.470;2022-11-20T00:08:44;99476.47;;;5.64;100.00
64253;BME280;50592;52.958;-7.470;2022-11-20T00:11:17;99483.09;;;5.68;100.00
64253;BME280;50592;52.958;-7.470;2022-11-20T00:13:44;99482.94;;;5.69;100.00
64253;BME280;50592;52.958;-7.470;2022-11-20T00:16:11;99484.19;;;5.75;100.00
64253;BME280;50592;52.958;-7.470;2022-11-20T00:18:37;99481.41;;;5.77;100.00
64253;BME280;50592;52.958;-7.470;2022-11-20T00:21:10;99476.19;;;5.87;100.00
64253;BME280;50592;52.958;-7.470;2022-11-20T00:23:36;99485.84;;;5.86;100.00
64253;BME280;50592;52.958;-7.470;2022-11-20T00:26:06;99479.78;;;5.86;100.00
64253;BME280;50592;52.958;-7.470;2022-11-20T00:28:33;99472.59;;;5.78;100.00
64253;BME280;50592;52.958;-7.470;2022-11-20T00:31:07;99481.16;;;5.70;100.00
64253;BME280;50592;52.958;-7.470;2022-11-20T00:33:34;99481.13;;;5.60;100.00
64253;BME280;50592;52.958;-7.470;2022-11-20T00:36:21;99479.75;;;5.56;100.00
64253;BME280;50592;52.958;-7.470;2022-11-20T00:38:51;99487.06;;;5.52;100.00
64253;BME280;50592;52.958;-7.470;2022-11-20T00:41:17;99484.84;;;5.48;100.00
64253;BME280;50592;52.958;-7.470;2022-11-20T00:43:43;99477.41;;;5.43;100.00
64253;BME280;50592;52.958;-7.470;2022-11-20T00:46:12;99485.25;;;5.43;100.00
64253;BME280;50592;52.958;-7.470;2022-11-20T00:48:38;99478.44;;;5.30;100.00
64253;BME280;50592;52.958;-7.470;2022-11-20T00:51:04;99476.63;;;5.21;100.00
64253;BME280;50592;52.958;-7.470;2022-11-20T00:53:30;99496.06;;;5.18;100.00
64253;BME280;50592;52.958;-7.470;2022-11-20T00:56:02;99495.09;;;5.19;100.00
64253;BME280;50592;52.958;-7.470;2022-11-20T00:58:36;99500.22;;;5.21;100.00
64253;BME280;50592;52.958;-7.470;2022-11-20T01:01:11;99499.41;;;5.20;100.00
64253;BME280;50592;52.958;-7.470;2022-11-20T01:03:39;99498.69;;;5.18;100.00
64253;BME280;50592;52.958;-7.470;2022-11-20T01:06:09;99497.97;;;5.16;100.00
64253;BME280;50592;52.958;-7.470;2022-11-20T01:08:36;99493.84;;;5.14;100.00
64253;BME280;50592;52.958;-7.470;2022-11-20T01:11:05;99500.06;;;5.13;100.00
64253;BME280;50592;52.958;-7.470;2022-11-20T01:13:31;99492.75;;;5.06;100.00
64253;BME280;50592;52.958;-7.470;2022-11-20T01:16:05;99495.59;;;5.03;100.00
64253;BME280;50592;52.958;-7.470;2022-11-20T01:18:31;99496.81;;;4.99;100.00
64253;BME280;50592;52.958;-7.470;2022-11-20T01:21:06;99507.16;;;5.01;100.00
64253;BME280;50592;52.958;-7.470;2022-11-20T01:23:37;99508.94;;;5.00;100.00
64253;BME280;50592;52.958;-7.470;2022-11-20T01:26:06;99516.94;;;4.99;100.00
64253;BME280;50592;52.958;-7.470;2022-11-20T01:28:32;99531.00;;;4.97;100.00
64253;BME280;50592;52.958;-7.470;2022-11-20T01:30:59;99553.06;;;4.95;100.00
64253;BME280;50592;52.958;-7.470;2022-11-20T01:33:25;99549.16;;;4.89;100.00
64253;BME280;50592;52.958;-7.470;2022-11-20T01:35:51;99554.13;;;4.92;100.00
64253;BME280;50592;52.958;-7.470;2022-11-20T01:38:17;99544.34;;;4.94;100.00
64253;BME280;50592;52.958;-7.470;2022-11-20T01:40:43;99535.28;;;4.99;100.00
64253;BME280;50592;52.958;-7.470;2022-11-20T01:43:16;99541.41;;;5.09;100.00
64253;BME280;50592;52.958;-7.470;2022-11-20T01:48:25;99524.50;;;5.23;100.00
64253;BME280;50592;52.958;-7.470;2022-11-20T01:50:52;99517.88;;;5.29;100.00
64253;BME280;50592;52.958;-7.470;2022-11-20T01:53:21;99525.47;;;5.32;100.00
64253;BME280;50592;52.958;-7.470;2022-11-20T01:55:51;99508.28;;;5.39;100.00
64253;BME280;50592;52.958;-7.470;2022-11-20T01:58:21;99507.03;;;5.43;100.00
64253;BME280;50592;52.958;-7.470;2022-11-20T02:00:48;99508.13;;;5.41;100.00
64253;BME280;50592;52.958;-7.470;2022-11-20T02:03:16;99517.91;;;5.39;100.00
64253;BME280;50592;52.958;-7.470;2022-11-20T02:05:57;99535.44;;;5.38;100.00
64253;BME280;50592;52.958;-7.470;2022-11-20T02:08:23;99538.72;;;5.30;100.00
64253;BME280;50592;52.958;-7.470;2022-11-20T02:10:49;99552.34;;;5.24;100.00
64253;BME280;50592;52.958;-7.470;2022-11-20T02:13:15;99546.97;;;5.26;100.00
64253;BME280;50592;52.958;-7.470;2022-11-20T02:16:00;99541.59;;;5.27;100.00
64253;BME280;50592;52.958;-7.470;2022-11-20T02:18:27;99532.53;;;5.31;100.00
64253;BME280;50592;52.958;-7.470;2022-11-20T02:20:58;99533.34;;;5.32;100.00
64253;BME280;50592;52.958;-7.470;2022-11-20T02:24:31;99520.38;;;5.30;100.00
64253;BME280;50592;52.958;-7.470;2022-11-20T02:26:30;99528.38;;;5.29;100.00
64253;BME280;50592;52.958;-7.470;2022-11-20T02:28:58;99525.19;;;5.25;100.00
64253;BME280;50592;52.958;-7.470;2022-11-20T02:31:26;99533.19;;;5.24;100.00
64253;BME280;50592;52.958;-7.470;2022-11-20T02:33:56;99534.97;;;5.23;100.00
64253;BME280;50592;52.958;-7.470;2022-11-20T02:36:23;99531.66;;;5.21;100.00
64253;BME280;50592;52.958;-7.470;2022-11-20T02:38:50;99534.53;;;5.18;100.00
64253;BME280;50592;52.958;-7.470;2022-11-20T02:41:16;99538.81;;;5.19;100.00
64253;BME280;50592;52.958;-7.470;2022-11-20T02:43:41;99533.16;;;5.14;100.00
64253;BME280;50592;52.958;-7.470;2022-11-20T02:46:07;99532.69;;;5.08;100.00
64253;BME280;50592;52.958;-7.470;2022-11-20T02:48:33;99533.41;;;5.11;100.00
64253;BME280;50592;52.958;-7.470;2022-11-20T02:50:59;99524.59;;;5.12;100.00
64253;BME280;50592;52.958;-7.470;2022-11-20T02:53:24;99527.06;;;5.13;100.00
64253;BME280;50592;52.958;-7.470;2022-11-20T02:55:50;99536.59;;;5.14;100.00
64253;BME280;50592;52.958;-7.470;2022-11-20T02:58:16;99540.03;;;5.15;100.00
64253;BME280;50592;52.958;-7.470;2022-11-20T03:00:42;99535.75;;;5.14;100.00
64253;BME280;50592;52.958;-7.470;2022-11-20T03:03:07;99530.41;;;5.15;100.00
64253;BME280;50592;52.958;-7.470;2022-11-20T03:05:33;99526.00;;;5.16;100.00
64253;BME280;50592;52.958;-7.470;2022-11-20T03:07:59;99530.00;;;5.20;100.00
64253;BME280;50592;52.958;-7.470;2022-11-20T03:10:24;99517.34;;;5.25;100.00
64253;BME280;50592;52.958;-7.470;2022-11-20T03:12:54;99515.00;;;5.32;100.00
64253;BME280;50592;52.958;-7.470;2022-11-20T03:15:22;99511.28;;;5.34;100.00
64253;BME280;50592;52.958;-7.470;2022-11-20T03:17:48;99503.31;;;5.36;100.00
64253;BME280;50592;52.958;-7.470;2022-11-20T03:20:14;99496.28;;;5.37;100.00
64253;BME280;50592;52.958;-7.470;2022-11-20T03:22:40;99497.94;;;5.38;100.00
64253;BME280;50592;52.958;-7.470;2022-11-20T03:25:06;99507.97;;;5.32;100.00
64253;BME280;50592;52.958;-7.470;2022-11-20T03:27:33;99518.44;;;5.32;100.00
64253;BME280;50592;52.958;-7.470;2022-11-20T03:29:59;99509.22;;;5.28;100.00
64253;BME280;50592;52.958;-7.470;2022-11-20T03:32:26;99522.31;;;5.28;100.00
64253;BME280;50592;52.958;-7.470;2022-11-20T03:34:51;99522.31;;;5.28;100.00
64253;BME280;50592;52.958;-7.470;2022-11-20T03:37:17;99515.41;;;5.27;100.00
64253;BME280;50592;52.958;-7.470;2022-11-20T03:39:43;99516.38;;;5.26;100.00
64253;BME280;50592;52.958;-7.470;2022-11-20T03:42:09;99521.03;;;5.22;100.00
64253;BME280;50592;52.958;-7.470;2022-11-20T03:44:55;99516.47;;;5.15;100.00
64253;BME280;50592;52.958;-7.470;2022-11-20T03:47:20;99529.56;;;5.15;100.00
64253;BME280;50592;52.958;-7.470;2022-11-20T03:49:46;99530.53;;;5.14;100.00
64253;BME280;50592;52.958;-7.470;2022-11-20T03:52:12;99520.31;;;5.11;100.00
64253;BME280;50592;52.958;-7.470;2022-11-20T03:54:38;99525.09;;;5.05;100.00
64253;BME280;50592;52.958;-7.470;2022-11-20T03:57:03;99530.75;;;5.01;100.00
64253;BME280;50592;52.958;-7.470;2022-11-20T03:59:29;99518.16;;;4.94;100.00
64253;BME280;50592;52.958;-7.470;2022-11-20T04:01:55;99520.22;;;4.91;100.00
64253;BME280;50592;52.958;-7.470;2022-11-20T04:04:20;99521.44;;;4.87;100.00
64253;BME280;50592;52.958;-7.470;2022-11-20T04:06:46;99528.19;;;4.79;100.00
64253;BME280;50592;52.958;-7.470;2022-11-20T04:09:12;99518.91;;;4.75;100.00
64253;BME280;50592;52.958;-7.470;2022-11-20T04:11:39;99518.31;;;4.71;100.00
64253;BME280;50592;52.958;-7.470;2022-11-20T04:14:11;99526.69;;;4.65;100.00
64253;BME280;50592;52.958;-7.470;2022-11-20T04:16:38;99520.91;;;4.62;100.00
64253;BME280;50592;52.958;-7.470;2022-11-20T04:19:06;99517.44;;;4.61;100.00
64253;BME280;50592;52.958;-7.470;2022-11-20T04:21:34;99520.44;;;4.56;100.00
64253;BME280;50592;52.958;-7.470;2022-11-20T04:24:01;99519.06;;;4.52;100.00
64253;BME280;50592;52.958;-7.470;2022-11-20T04:26:28;99526.72;;;4.44;100.00
64253;BME280;50592;52.958;-7.470;2022-11-20T04:28:55;99522.00;;;4.38;100.00
64253;BME280;50592;52.958;-7.470;2022-11-20T04:31:23;99524.16;;;4.32;100.00
64253;BME280;50592;52.958;-7.470;2022-11-20T04:33:49;99514.19;;;4.26;100.00
64253;BME280;50592;52.958;-7.470;2022-11-20T04:36:17;99520.66;;;4.22;100.00
64253;BME280;50592;52.958;-7.470;2022-11-20T04:38:43;99528.28;;;4.14;100.00
64253;BME280;50592;52.958;-7.470;2022-11-20T04:41:16;99517.94;;;4.12;100.00
64253;BME280;50592;52.958;-7.470;2022-11-20T04:43:46;99527.09;;;4.06;100.00
64253;BME280;50592;52.958;-7.470;2022-11-20T04:46:13;99529.28;;;4.01;100.00
64253;BME280;50592;52.958;-7.470;2022-11-20T04:48:39;99525.09;;;3.99;100.00
64253;BME280;50592;52.958;-7.470;2022-11-20T04:51:05;99521.44;;;4.01;100.00
64253;BME280;50592;52.958;-7.470;2022-11-20T04:53:31;99523.09;;;4.02;100.00
64253;BME280;50592;52.958;-7.470;2022-11-20T04:56:05;99512.38;;;4.05;100.00
64253;BME280;50592;52.958;-7.470;2022-11-20T04:58:32;99520.94;;;4.07;100.00
64253;BME280;50592;52.958;-7.470;2022-11-20T05:01:15;99509.38;;;4.10;100.00
64253;BME280;50592;52.958;-7.470;2022-11-20T05:03:43;99496.44;;;4.08;100.00
64253;BME280;50592;52.958;-7.470;2022-11-20T05:06:13;99497.28;;;4.09;100.00
64253;BME280;50592;52.958;-7.470;2022-11-20T05:08:39;99502.50;;;4.09;100.00
64253;BME280;50592;52.958;-7.470;2022-11-20T05:11:11;99503.69;;;4.05;100.00
64253;BME280;50592;52.958;-7.470;2022-11-20T05:13:38;99494.56;;;3.99;100.00
64253;BME280;50592;52.958;-7.470;2022-11-20T05:16:09;99495.53;;;3.98;100.00
64253;BME280;50592;52.958;-7.470;2022-11-20T05:18:35;99494.94;;;3.94;100.00
64253;BME280;50592;52.958;-7.470;2022-11-20T05:21:02;99498.63;;;3.92;100.00
64253;BME280;50592;52.958;-7.470;2022-11-20T05:23:30;99497.94;;;3.90;100.00
64253;BME280;50592;52.958;-7.470;2022-11-20T05:25:57;99499.00;;;3.87;100.00
64253;BME280;50592;52.958;-7.470;2022-11-20T05:28:23;99496.63;;;3.84;100.00
64253;BME280;50592;52.958;-7.470;2022-11-20T05:30:49;99513.53;;;3.80;100.00
64253;BME280;50592;52.958;-7.470;2022-11-20T05:33:15;99508.69;;;3.75;100.00
64253;BME280;50592;52.958;-7.470;2022-11-20T05:35:42;99509.63;;;3.74;100.00
64253;BME280;50592;52.958;-7.470;2022-11-20T05:38:07;99513.31;;;3.71;100.00
64253;BME280;50592;52.958;-7.470;2022-11-20T05:40:33;99510.81;;;3.70;100.00
64253;BME280;50592;52.958;-7.470;2022-11-20T05:43:00;99499.44;;;3.71;100.00
64253;BME280;50592;52.958;-7.470;2022-11-20T05:45:26;99490.88;;;3.69;100.00
64253;BME280;50592;52.958;-7.470;2022-11-20T05:47:52;99487.53;;;3.67;100.00
64253;BME280;50592;52.958;-7.470;2022-11-20T05:50:18;99495.38;;;3.67;100.00
64253;BME280;50592;52.958;-7.470;2022-11-20T05:52:44;99492.78;;;3.67;100.00
64253;BME280;50592;52.958;-7.470;2022-11-20T05:55:10;99495.63;;;3.64;100.00
64253;BME280;50592;52.958;-7.470;2022-11-20T05:57:36;99495.50;;;3.65;100.00
64253;BME280;50592;52.958;-7.470;2022-11-20T06:00:03;99472.09;;;3.64;100.00
64253;BME280;50592;52.958;-7.470;2022-11-20T06:02:30;99451.44;;;3.60;100.00
64253;BME280;50592;52.958;-7.470;2022-11-20T06:04:56;99434.13;;;3.59;100.00
64253;BME280;50592;52.958;-7.470;2022-11-20T06:07:21;99433.53;;;3.56;100.00
64253;BME280;50592;52.958;-7.470;2022-11-20T06:09:47;99452.16;;;3.63;100.00
64253;BME280;50592;52.958;-7.470;2022-11-20T06:12:13;99448.47;;;3.65;100.00
64253;BME280;50592;52.958;-7.470;2022-11-20T06:14:39;99458.41;;;3.71;100.00
64253;BME280;50592;52.958;-7.470;2022-11-20T06:17:04;99458.41;;;3.71;100.00
64253;BME280;50592;52.958;-7.470;2022-11-20T06:19:30;99448.09;;;3.70;100.00
64253;BME280;50592;52.958;-7.470;2022-11-20T06:21:56;99433.00;;;3.74;100.00
64253;BME280;50592;52.958;-7.470;2022-11-20T06:24:21;99430.59;;;3.82;100.00
64253;BME280;50592;52.958;-7.470;2022-11-20T06:26:48;99423.44;;;3.84;100.00
64253;BME280;50592;52.958;-7.470;2022-11-20T06:29:13;99429.38;;;3.86;100.00
64253;BME280;50592;52.958;-7.470;2022-11-20T06:31:39;99433.63;;;3.87;100.00
64253;BME280;50592;52.958;-7.470;2022-11-20T06:34:05;99434.94;;;3.93;100.00
64253;BME280;50592;52.958;-7.470;2022-11-20T06:36:31;99438.50;;;3.92;100.00
64253;BME280;50592;52.958;-7.470;2022-11-20T06:38:57;99428.88;;;3.92;100.00
64253;BME280;50592;52.958;-7.470;2022-11-20T06:41:23;99433.25;;;3.92;100.00
64253;BME280;50592;52.958;-7.470;2022-11-20T06:43:49;99439.22;;;3.94;100.00
64253;BME280;50592;52.958;-7.470;2022-11-20T06:46:16;99438.28;;;3.95;100.00
64253;BME280;50592;52.958;-7.470;2022-11-20T06:48:47;99439.91;;;3.96;100.00
64253;BME280;50592;52.958;-7.470;2022-11-20T06:51:12;99432.06;;;3.96;100.00
64253;BME280;50592;52.958;-7.470;2022-11-20T06:53:38;99443.50;;;3.95;100.00
64253;BME280;50592;52.958;-7.470;2022-11-20T06:56:05;99442.53;;;3.96;100.00
64253;BME280;50592;52.958;-7.470;2022-11-20T06:58:32;99443.50;;;3.95;100.00
64253;BME280;50592;52.958;-7.470;2022-11-20T07:01:00;99440.03;;;3.94;100.00
64253;BME280;50592;52.958;-7.470;2022-11-20T07:03:27;99449.78;;;3.92;100.00
64253;BME280;50592;52.958;-7.470;2022-11-20T07:05:56;99457.38;;;3.95;100.00
64253;BME280;50592;52.958;-7.470;2022-11-20T07:08:23;99456.09;;;3.90;100.00
64253;BME280;50592;52.958;-7.470;2022-11-20T07:10:49;99456.22;;;3.88;100.00
64253;BME280;50592;52.958;-7.470;2022-11-20T07:13:14;99462.28;;;3.89;100.00
64253;BME280;50592;52.958;-7.470;2022-11-20T07:15:40;99460.88;;;3.84;100.00
64253;BME280;50592;52.958;-7.470;2022-11-20T07:18:06;99465.25;;;3.84;100.00
64253;BME280;50592;52.958;-7.470;2022-11-20T07:20:32;99466.09;;;3.84;100.00
64253;BME280;50592;52.958;-7.470;2022-11-20T07:22:58;99464.44;;;3.83;100.00
64253;BME280;50592;52.958;-7.470;2022-11-20T07:25:24;99463.38;;;3.86;100.00
64253;BME280;50592;52.958;-7.470;2022-11-20T07:27:51;99459.09;;;3.85;100.00
64253;BME280;50592;52.958;-7.470;2022-11-20T07:30:17;99468.72;;;3.84;100.00
64253;BME280;50592;52.958;-7.470;2022-11-20T07:32:46;99460.75;;;3.86;100.00
64253;BME280;50592;52.958;-7.470;2022-11-20T07:35:12;99461.84;;;3.83;100.00
64253;BME280;50592;52.958;-7.470;2022-11-20T07:37:38;99478.09;;;3.87;100.00
64253;BME280;50592;52.958;-7.470;2022-11-20T07:40:04;99478.09;;;3.87;100.00
64253;BME280;50592;52.958;-7.470;2022-11-20T07:42:30;99479.50;;;3.91;100.00
64253;BME280;50592;52.958;-7.470;2022-11-20T07:44:55;99491.38;;;3.95;100.00
64253;BME280;50592;52.958;-7.470;2022-11-20T07:47:21;99481.25;;;4.02;100.00
64253;BME280;50592;52.958;-7.470;2022-11-20T07:49:47;99473.72;;;4.09;100.00
64253;BME280;50592;52.958;-7.470;2022-11-20T07:52:12;99481.88;;;4.16;100.00
64253;BME280;50592;52.958;-7.470;2022-11-20T07:54:38;99477.09;;;4.21;100.00
64253;BME280;50592;52.958;-7.470;2022-11-20T07:57:04;99482.09;;;4.24;100.00
64253;BME280;50592;52.958;-7.470;2022-11-20T07:59:29;99474.69;;;4.29;100.00
64253;BME280;50592;52.958;-7.470;2022-11-20T08:01:55;99467.16;;;4.36;100.00
64253;BME280;50592;52.958;-7.470;2022-11-20T08:04:21;99465.81;;;4.42;100.00
64253;BME280;50592;52.958;-7.470;2022-11-20T08:06:47;99457.19;;;4.51;100.00
64253;BME280;50592;52.958;-7.470;2022-11-20T08:09:12;99454.06;;;4.57;100.00
64253;BME280;50592;52.958;-7.470;2022-11-20T08:11:38;99449.41;;;4.61;100.00
64253;BME280;50592;52.958;-7.470;2022-11-20T08:14:22;99443.06;;;4.64;100.00
64253;BME280;50592;52.958;-7.470;2022-11-20T08:16:49;99444.22;;;4.71;100.00
64253;BME280;50592;52.958;-7.470;2022-11-20T08:19:16;99444.88;;;4.73;100.00
64253;BME280;50592;52.958;-7.470;2022-11-20T08:21:43;99444.53;;;4.78;100.00
64253;BME280;50592;52.958;-7.470;2022-11-20T08:24:12;99430.72;;;4.76;100.00
64253;BME280;50592;52.958;-7.470;2022-11-20T08:26:39;99435.31;;;4.83;100.00
64253;BME280;50592;52.958;-7.470;2022-11-20T08:29:05;99431.56;;;4.86;100.00
64253;BME280;50592;52.958;-7.470;2022-11-20T08:31:32;99426.91;;;4.90;100.00
64253;BME280;50592;52.958;-7.470;2022-11-20T08:33:58;99423.19;;;4.92;100.00
64253;BME280;50592;52.958;-7.470;2022-11-20T08:36:24;99429.97;;;4.95;100.00
64253;BME280;50592;52.958;-7.470;2022-11-20T08:38:52;99430.38;;;5.00;100.00
64253;BME280;50592;52.958;-7.470;2022-11-20T08:41:18;99420.75;;;5.01;100.00
64253;BME280;50592;52.958;-7.470;2022-11-20T08:43:51;99433.16;;;5.08;100.00
64253;BME280;50592;52.958;-7.470;2022-11-20T08:46:17;99424.91;;;5.13;100.00
64253;BME280;50592;52.958;-7.470;2022-11-20T08:48:43;99427.97;;;5.18;100.00
64253;BME280;50592;52.958;-7.470;2022-11-20T08:51:10;99431.97;;;5.22;100.00
64253;BME280;50592;52.958;-7.470;2022-11-20T08:53:37;99430.59;;;5.28;100.00
64253;BME280;50592;52.958;-7.470;2022-11-20T08:56:03;99446.75;;;5.33;100.00
64253;BME280;50592;52.958;-7.470;2022-11-20T08:58:29;99441.13;;;5.38;100.00
64253;BME280;50592;52.958;-7.470;2022-11-20T09:00:54;99450.06;;;5.45;100.00
64253;BME280;50592;52.958;-7.470;2022-11-20T09:03:20;99462.06;;;5.48;100.00
64253;BME280;50592;52.958;-7.470;2022-11-20T09:05:46;99475.59;;;5.53;100.00
64253;BME280;50592;52.958;-7.470;2022-11-20T09:08:11;99477.13;;;5.56;100.00
64253;BME280;50592;52.958;-7.470;2022-11-20T09:10:37;99471.59;;;5.59;100.00
64253;BME280;50592;52.958;-7.470;2022-11-20T09:13:05;99500.72;;;5.56;100.00
64253;BME280;50592;52.958;-7.470;2022-11-20T09:15:31;99495.88;;;5.51;100.00
64253;BME280;50592;52.958;-7.470;2022-11-20T09:18:01;99496.28;;;5.46;100.00
64253;BME280;50592;52.958;-7.470;2022-11-20T09:20:28;99501.53;;;5.37;100.00
64253;BME280;50592;52.958;-7.470;2022-11-20T09:22:55;99506.84;;;5.25;100.00
64253;BME280;50592;52.958;-7.470;2022-11-20T09:25:21;99505.44;;;5.21;100.00
64253;BME280;50592;52.958;-7.470;2022-11-20T09:27:47;99507.78;;;5.14;100.00
64253;BME280;50592;52.958;-7.470;2022-11-20T09:30:14;99501.97;;;5.11;100.00
64253;BME280;50592;52.958;-7.470;2022-11-20T09:32:40;99507.88;;;5.03;100.00
64253;BME280;50592;52.958;-7.470;2022-11-20T09:35:06;99477.66;;;4.99;100.00
64253;BME280;50592;52.958;-7.470;2022-11-20T09:37:31;99449.81;;;4.97;100.00
64253;BME280;50592;52.958;-7.470;2022-11-20T09:39:57;99436.16;;;4.94;100.00
64253;BME280;50592;52.958;-7.470;2022-11-20T09:45:23;99458.06;;;4.93;100.00
64253;BME280;50592;52.958;-7.470;2022-11-20T09:54:14;99454.34;;;4.95;100.00
64253;BME280;50592;52.958;-7.470;2022-11-20T09:56:45;99445.56;;;4.96;100.00
64253;BME280;50592;52.958;-7.470;2022-11-20T09:59:27;99452.31;;;4.99;100.00
64253;BME280;50592;52.958;-7.470;2022-11-20T10:01:55;99456.69;;;4.99;100.00
64253;BME280;50592;52.958;-7.470;2022-11-20T10:04:21;99454.38;;;5.05;100.00
64253;BME280;50592;52.958;-7.470;2022-11-20T10:06:56;99451.94;;;5.14;100.00
64253;BME280;50592;52.958;-7.470;2022-11-20T10:09:30;99463.13;;;5.26;100.00
64253;BME280;50592;52.958;-7.470;2022-11-20T10:12:04;99462.47;;;5.33;100.00
64253;BME280;50592;52.958;-7.470;2022-11-20T10:20:40;99486.81;;;5.65;100.00
64253;BME280;50592;52.958;-7.470;2022-11-20T10:26:03;99502.53;;;5.75;100.00
64253;BME280;50592;52.958;-7.470;2022-11-20T10:31:09;99496.06;;;5.89;100.00
64253;BME280;50592;52.958;-7.470;2022-11-20T10:33:39;99487.09;;;5.92;100.00
64253;BME280;50592;52.958;-7.470;2022-11-20T10:36:18;99476.88;;;5.99;100.00
64253;BME280;50592;52.958;-7.470;2022-11-20T10:38:54;99483.81;;;6.10;100.00
64253;BME280;50592;52.958;-7.470;2022-11-20T10:41:34;99482.56;;;6.14;100.00
64253;BME280;50592;52.958;-7.470;2022-11-20T10:44:05;99483.13;;;6.27;100.00
64253;BME280;50592;52.958;-7.470;2022-11-20T10:46:53;99478.53;;;6.39;100.00
64253;BME280;50592;52.958;-7.470;2022-11-20T10:49:37;99497.88;;;6.48;100.00
64253;BME280;50592;52.958;-7.470;2022-11-20T11:00:12;99497.16;;;6.46;100.00
64253;BME280;50592;52.958;-7.470;2022-11-20T11:02:50;99500.06;;;6.53;100.00
64253;BME280;50592;52.958;-7.470;2022-11-20T11:05:39;99493.81;;;6.64;100.00
64253;BME280;50592;52.958;-7.470;2022-11-20T11:08:12;99494.75;;;6.73;100.00
64253;BME280;50592;52.958;-7.470;2022-11-20T11:10:57;99493.25;;;6.70;100.00
64253;BME280;50592;52.958;-7.470;2022-11-20T11:13:26;99479.72;;;6.65;100.00
64253;BME280;50592;52.958;-7.470;2022-11-20T11:15:53;99480.56;;;6.65;100.00
64253;BME280;50592;52.958;-7.470;2022-11-20T11:18:29;99490.47;;;6.72;100.00
64253;BME280;50592;52.958;-7.470;2022-11-20T11:20:57;99494.72;;;6.82;100.00
64253;BME280;50592;52.958;-7.470;2022-11-20T11:25:59;99498.66;;;7.06;100.00
64253;BME280;50592;52.958;-7.470;2022-11-20T11:28:27;99502.19;;;7.15;100.00
64253;BME280;50592;52.958;-7.470;2022-11-20T11:30:54;99503.28;;;7.23;100.00
64253;BME280;50592;52.958;-7.470;2022-11-20T11:33:31;99500.75;;;7.31;100.00
64253;BME280;50592;52.958;-7.470;2022-11-20T11:36:04;99498.34;;;7.38;100.00
64253;BME280;50592;52.958;-7.470;2022-11-20T11:38:41;99511.34;;;7.39;100.00
64253;BME280;50592;52.958;-7.470;2022-11-20T11:41:15;99527.91;;;7.50;100.00
64253;BME280;50592;52.958;-7.470;2022-11-20T11:43:51;99542.56;;;7.52;100.00
64253;BME280;50592;52.958;-7.470;2022-11-20T11:46:36;99556.03;;;7.39;100.00
64253;BME280;50592;52.958;-7.470;2022-11-20T11:52:20;99543.81;;;7.20;100.00
64253;BME280;50592;52.958;-7.470;2022-11-20T11:54:24;99530.31;;;7.05;100.00
64253;BME280;50592;52.958;-7.470;2022-11-20T11:56:53;99535.91;;;6.92;100.00
64253;BME280;50592;52.958;-7.470;2022-11-20T11:59:28;99528.47;;;6.77;100.00
64253;BME280;50592;52.958;-7.470;2022-11-20T12:02:04;99526.13;;;6.64;100.00
64253;BME280;50592;52.958;-7.470;2022-11-20T12:04:46;99538.63;;;6.52;100.00
64253;BME280;50592;52.958;-7.470;2022-11-20T12:07:37;99543.16;;;6.40;100.00
64253;BME280;50592;52.958;-7.470;2022-11-20T12:10:07;99545.81;;;6.30;100.00
64253;BME280;50592;52.958;-7.470;2022-11-20T12:12:44;99541.28;;;6.23;100.00
64253;BME280;50592;52.958;-7.470;2022-11-20T12:15:25;99536.81;;;6.23;100.00
64253;BME280;50592;52.958;-7.470;2022-11-20T12:17:51;99532.84;;;6.29;100.00
64253;BME280;50592;52.958;-7.470;2022-11-20T12:20:17;99530.88;;;6.41;100.00
64253;BME280;50592;52.958;-7.470;2022-11-20T12:22:59;99523.41;;;6.56;100.00
64253;BME280;50592;52.958;-7.470;2022-11-20T12:25:30;99530.31;;;6.67;100.00
64253;BME280;50592;52.958;-7.470;2022-11-20T12:39:24;99538.25;;;6.95;100.00
64253;BME280;50592;52.958;-7.470;2022-11-20T12:47:54;99532.22;;;7.13;100.00
64253;BME280;50592;52.958;-7.470;2022-11-20T12:50:43;99540.22;;;7.21;100.00
64253;BME280;50592;52.958;-7.470;2022-11-20T12:53:33;99532.06;;;7.24;100.00
64253;BME280;50592;52.958;-7.470;2022-11-20T13:00:10;99558.19;;;7.26;100.00
64253;BME280;50592;52.958;-7.470;2022-11-20T13:05:01;99531.78;;;7.45;100.00
64253;BME280;50592;52.958;-7.470;2022-11-20T13:07:32;99537.59;;;7.49;100.00
64253;BME280;50592;52.958;-7.470;2022-11-20T13:10:00;99534.97;;;7.49;100.00
64253;BME280;50592;52.958;-7.470;2022-11-20T13:12:41;99542.72;;;7.51;100.00
64253;BME280;50592;52.958;-7.470;2022-11-20T13:15:34;99552.69;;;7.47;100.00
64253;BME280;50592;52.958;-7.470;2022-11-20T13:18:04;99543.97;;;7.47;100.00
64253;BME280;50592;52.958;-7.470;2022-11-20T13:20:34;99560.72;;;7.45;100.00
64253;BME280;50592;52.958;-7.470;2022-11-20T13:23:00;99566.66;;;7.48;100.00
64253;BME280;50592;52.958;-7.470;2022-11-20T13:27:53;99554.91;;;7.70;100.00
64253;BME280;50592;52.958;-7.470;2022-11-20T13:30:26;99556.38;;;7.82;100.00
64253;BME280;50592;52.958;-7.470;2022-11-20T13:33:20;99557.59;;;7.88;100.00
64253;BME280;50592;52.958;-7.470;2022-11-20T13:38:24;99569.38;;;7.84;100.00
64253;BME280;50592;52.958;-7.470;2022-11-20T13:40:51;99582.13;;;7.79;100.00
64253;BME280;50592;52.958;-7.470;2022-11-20T13:46:06;99562.66;;;7.72;100.00
64253;BME280;50592;52.958;-7.470;2022-11-20T13:48:34;99558.97;;;7.64;100.00
64253;BME280;50592;52.958;-7.470;2022-11-20T13:56:03;99565.25;;;7.53;100.00
64253;BME280;50592;52.958;-7.470;2022-11-20T14:01:18;99554.78;;;7.43;100.00
64253;BME280;50592;52.958;-7.470;2022-11-20T14:03:47;99556.28;;;7.46;100.00
64253;BME280;50592;52.958;-7.470;2022-11-20T14:06:29;99555.84;;;7.51;100.00
64253;BME280;50592;52.958;-7.470;2022-11-20T14:08:57;99563.06;;;7.49;100.00
64253;BME280;50592;52.958;-7.470;2022-11-20T14:11:28;99576.19;;;7.49;100.00
64253;BME280;50592;52.958;-7.470;2022-11-20T14:16:36;99568.59;;;7.45;100.00
64253;BME280;50592;52.958;-7.470;2022-11-20T14:19:31;99581.59;;;7.47;100.00